createdAt,value
2023-01-23T00:01:25.192Z,-1.00
2023-01-23T00:03:53.257Z,-1.00
2023-01-23T00:06:20.643Z,-1.00
2023-01-23T00:08:47.672Z,-1.00
2023-01-23T00:11:21.355Z,-1.00
2023-01-23T00:13:48.295Z,-1.10
2023-01-23T00:16:20.642Z,-1.00
2023-01-23T00:18:48.640Z,-1.00
2023-01-23T00:21:21.541Z,-1.00
2023-01-23T00:23:52.851Z,-1.00
2023-01-23T00:26:22.899Z,-1.00
2023-01-23T00:28:50.955Z,-1.00
2023-01-23T00:31:21.494Z,-1.00
2023-01-23T00:33:48.605Z,-1.00
2023-01-23T00:36:16.135Z,-1.00
2023-01-23T00:38:43.135Z,-1.00
2023-01-23T00:41:10.018Z,-1.00
2023-01-23T00:43:36.940Z,-1.00
2023-01-23T00:46:04.255Z,-1.10
2023-01-23T00:48:31.340Z,-1.10
2023-01-23T00:50:58.375Z,-1.10
2023-01-23T00:53:25.346Z,-1.20
2023-01-23T00:55:53.658Z,-1.20
2023-01-23T00:58:20.667Z,-1.20
2023-01-23T01:00:47.622Z,-1.10
2023-01-23T01:03:14.666Z,-1.10
2023-01-23T01:05:41.713Z,-1.20
2023-01-23T01:08:09.097Z,-1.20
2023-01-23T01:10:36.200Z,-1.20
2023-01-23T01:13:04.214Z,-1.20
2023-01-23T01:15:31.312Z,-1.20
2023-01-23T01:17:59.113Z,-1.20
2023-01-23T01:20:28.340Z,-1.20
2023-01-23T01:22:57.431Z,-1.20
2023-01-23T01:25:25.076Z,-1.10
2023-01-23T01:27:52.201Z,-1.20
2023-01-23T01:30:19.731Z,-1.20
2023-01-23T01:32:46.916Z,-1.20
2023-01-23T01:35:14.412Z,-1.20
2023-01-23T01:37:42.221Z,-1.20
2023-01-23T01:40:14.529Z,-1.20
2023-01-23T01:42:47.844Z,-1.20
2023-01-23T01:45:52.201Z,-1.30
2023-01-23T01:48:23.658Z,-1.30
2023-01-23T01:50:51.044Z,-1.30
2023-01-23T01:53:18.504Z,-1.30
2023-01-23T01:55:45.894Z,-1.30
2023-01-23T01:58:14.255Z,-1.30
2023-01-23T02:00:41.587Z,-1.30
2023-01-23T02:03:08.872Z,-1.30
2023-01-23T02:05:39.740Z,-1.30
2023-01-23T02:08:14.795Z,-1.30
2023-01-23T02:10:42.288Z,-1.20
2023-01-23T02:13:37.175Z,-1.20
2023-01-23T02:16:06.214Z,-1.20
2023-01-23T02:18:36.233Z,-1.20
2023-01-23T02:21:07.966Z,-1.30
2023-01-23T02:24:09.017Z,-1.30
2023-01-23T02:26:40.449Z,-1.30
2023-01-23T02:29:08.449Z,-1.30
2023-01-23T02:31:35.531Z,-1.20
2023-01-23T02:34:02.568Z,-1.20
2023-01-23T02:36:32.688Z,-1.20
2023-01-23T02:39:05.644Z,-1.20
2023-01-23T02:41:36.198Z,-1.10
2023-01-23T02:44:12.251Z,-1.10
2023-01-23T02:46:39.954Z,-1.10
2023-01-23T02:49:06.872Z,-1.20
2023-01-23T02:51:33.815Z,-1.20
2023-01-23T02:54:01.200Z,-1.20
2023-01-23T02:56:28.351Z,-1.20
2023-01-23T02:59:13.739Z,-1.20
2023-01-23T03:01:40.664Z,-1.20
2023-01-23T03:04:07.838Z,-1.20
2023-01-23T03:06:37.731Z,-1.20
2023-01-23T03:09:08.301Z,-1.20
2023-01-23T03:11:37.432Z,-1.30
2023-01-23T03:14:06.281Z,-1.30
2023-01-23T03:16:37.222Z,-1.30
2023-01-23T03:19:08.357Z,-1.30
2023-01-23T03:21:37.596Z,-1.30
2023-01-23T03:24:06.385Z,-1.20
2023-01-23T03:26:33.481Z,-1.20
2023-01-23T03:29:19.099Z,-1.20
2023-01-23T03:31:46.070Z,-1.20
2023-01-23T03:34:13.027Z,-1.10
2023-01-23T03:36:41.296Z,-1.20
2023-01-23T03:39:26.855Z,-1.20
2023-01-23T03:41:54.571Z,-1.30
2023-01-23T03:44:22.076Z,-1.30
2023-01-23T03:46:50.676Z,-1.30
2023-01-23T03:49:18.685Z,-1.30
2023-01-23T03:51:45.882Z,-1.30
2023-01-23T03:54:14.771Z,-1.20
2023-01-23T03:56:42.603Z,-1.20
2023-01-23T03:59:09.903Z,-1.30
2023-01-23T04:01:37.586Z,-1.30
2023-01-23T04:04:05.006Z,-1.30
2023-01-23T04:06:32.120Z,-1.30
2023-01-23T04:08:59.247Z,-1.30
2023-01-23T04:11:26.741Z,-1.30
2023-01-23T04:13:54.843Z,-1.40
2023-01-23T04:16:23.021Z,-1.40
2023-01-23T04:18:51.064Z,-1.40
2023-01-23T04:21:18.405Z,-1.40
2023-01-23T04:23:45.625Z,-1.40
2023-01-23T04:26:13.426Z,-1.30
2023-01-23T04:28:40.505Z,-1.30
2023-01-23T04:31:09.682Z,-1.30
2023-01-23T04:33:36.920Z,-1.30
2023-01-23T04:36:06.331Z,-1.30
2023-01-23T04:38:34.580Z,-1.30
2023-01-23T04:41:01.822Z,-1.40
2023-01-23T04:43:28.949Z,-1.40
2023-01-23T04:45:56.767Z,-1.30
2023-01-23T04:48:24.676Z,-1.30
2023-01-23T04:50:51.792Z,-1.30
2023-01-23T04:53:19.109Z,-1.40
2023-01-23T04:55:49.695Z,-1.30
2023-01-23T04:58:18.328Z,-1.30
2023-01-23T05:00:45.904Z,-1.30
2023-01-23T05:03:13.459Z,-1.30
2023-01-23T05:05:40.645Z,-1.30
2023-01-23T05:08:07.534Z,-1.30
2023-01-23T05:10:34.602Z,-1.30
2023-01-23T05:13:01.567Z,-1.30
2023-01-23T05:15:30.872Z,-1.30
2023-01-23T05:17:58.014Z,-1.30
2023-01-23T05:20:34.116Z,-1.30
2023-01-23T05:23:01.183Z,-1.30
2023-01-23T05:25:29.251Z,-1.30
2023-01-23T05:27:56.582Z,-1.30
2023-01-23T05:30:23.704Z,-1.30
2023-01-23T05:32:50.918Z,-1.30
2023-01-23T05:35:18.191Z,-1.30
2023-01-23T05:37:52.086Z,-1.30
2023-01-23T05:40:20.864Z,-1.30
2023-01-23T05:42:49.142Z,-1.20
2023-01-23T05:45:16.918Z,-1.20
2023-01-23T05:47:44.053Z,-1.20
2023-01-23T05:50:16.171Z,-1.30
2023-01-23T05:52:43.309Z,-1.20
2023-01-23T05:55:10.824Z,-1.20
2023-01-23T05:57:37.811Z,-1.20
2023-01-23T06:00:06.761Z,-1.20
2023-01-23T06:02:35.073Z,-1.20
2023-01-23T06:05:02.047Z,-1.20
2023-01-23T06:07:29.085Z,-1.30
2023-01-23T06:09:56.141Z,-1.30
2023-01-23T06:12:23.051Z,-1.20
2023-01-23T06:14:49.988Z,-1.20
2023-01-23T06:17:16.991Z,-1.20
2023-01-23T06:19:44.014Z,-1.20
2023-01-23T06:22:10.983Z,-1.20
2023-01-23T06:24:37.945Z,-1.20
2023-01-23T06:27:08.554Z,-1.20
2023-01-23T06:29:36.829Z,-1.20
2023-01-23T06:32:04.631Z,-1.30
2023-01-23T06:34:31.731Z,-1.30
2023-01-23T06:36:58.667Z,-1.20
2023-01-23T06:39:26.044Z,-1.20
2023-01-23T06:41:53.151Z,-1.20
2023-01-23T06:44:20.067Z,-1.20
2023-01-23T06:46:47.075Z,-1.20
2023-01-23T06:49:14.134Z,-1.20
2023-01-23T06:51:41.212Z,-1.20
2023-01-23T06:54:08.237Z,-1.20
2023-01-23T06:56:35.149Z,-1.20
2023-01-23T06:59:02.078Z,-1.20
2023-01-23T07:01:29.336Z,-1.20
2023-01-23T07:03:56.355Z,-1.20
2023-01-23T07:06:23.531Z,-1.20
2023-01-23T07:08:50.496Z,-1.20
2023-01-23T07:11:17.512Z,-1.20
2023-01-23T07:13:44.416Z,-1.20
2023-01-23T07:16:11.432Z,-1.30
2023-01-23T07:18:38.479Z,-1.20
2023-01-23T07:21:06.902Z,-1.20
2023-01-23T07:23:34.878Z,-1.20
2023-01-23T07:26:03.853Z,-1.20
2023-01-23T07:28:31.285Z,-1.20
2023-01-23T07:30:59.887Z,-1.20
2023-01-23T07:33:27.153Z,-1.20
2023-01-23T07:35:54.559Z,-1.20
2023-01-23T07:38:26.030Z,-1.20
2023-01-23T07:40:53.381Z,-1.20
2023-01-23T07:43:20.399Z,-1.20
2023-01-23T07:45:47.360Z,-1.10
2023-01-23T07:48:14.496Z,-1.10
2023-01-23T07:50:41.502Z,-1.10
2023-01-23T07:53:08.838Z,-1.20
2023-01-23T07:55:38.559Z,-1.20
2023-01-23T07:58:05.815Z,-1.20
2023-01-23T08:00:32.902Z,-1.20
2023-01-23T08:02:59.991Z,-1.20
2023-01-23T08:05:27.556Z,-1.20
2023-01-23T08:08:11.403Z,-1.30
2023-01-23T08:10:39.364Z,-1.20
2023-01-23T08:13:06.291Z,-1.30
2023-01-23T08:15:33.640Z,-1.30
2023-01-23T08:18:00.629Z,-1.30
2023-01-23T08:20:27.645Z,-1.30
2023-01-23T08:22:54.581Z,-1.30
2023-01-23T08:25:21.561Z,-1.20
2023-01-23T08:27:48.597Z,-1.30
2023-01-23T08:30:15.854Z,-1.20
2023-01-23T08:32:42.889Z,-1.20
2023-01-23T08:35:10.087Z,-1.10
2023-01-23T08:37:37.965Z,-1.10
2023-01-23T08:40:05.548Z,-1.10
2023-01-23T08:42:32.511Z,-1.10
2023-01-23T08:44:59.485Z,-1.10
2023-01-23T08:47:26.400Z,-1.10
2023-01-23T08:49:53.421Z,-1.10
2023-01-23T08:52:20.415Z,-1.10
2023-01-23T08:54:47.360Z,-1.00
2023-01-23T08:57:14.254Z,-1.00
2023-01-23T08:59:42.668Z,-1.00
2023-01-23T09:02:14.227Z,-1.10
2023-01-23T09:04:41.290Z,-1.00
2023-01-23T09:07:08.273Z,-1.10
2023-01-23T09:09:35.512Z,-1.00
2023-01-23T09:12:02.543Z,-1.00
2023-01-23T09:14:29.436Z,-1.00
2023-01-23T09:16:56.586Z,-1.00
2023-01-23T09:19:23.549Z,-1.00
2023-01-23T09:21:53.895Z,-1.00
2023-01-23T09:24:20.874Z,-1.10
2023-01-23T09:26:47.742Z,-1.10
2023-01-23T09:29:15.801Z,-1.00
2023-01-23T09:31:42.743Z,-1.00
2023-01-23T09:34:09.701Z,-0.90
2023-01-23T09:36:42.812Z,-0.90
2023-01-23T09:39:10.534Z,-0.80
2023-01-23T09:41:39.966Z,-0.80
2023-01-23T09:44:22.778Z,-0.80
2023-01-23T09:46:54.933Z,-0.80
2023-01-23T09:49:42.154Z,-0.80
2023-01-23T09:52:19.433Z,-0.80
2023-01-23T09:55:02.896Z,-0.80
2023-01-23T09:57:45.383Z,-0.80
2023-01-23T10:00:32.160Z,-0.80
2023-01-23T10:03:02.018Z,-0.80
2023-01-23T10:05:35.303Z,-0.80
2023-01-23T10:08:28.668Z,-0.80
2023-01-23T10:11:06.264Z,-0.90
2023-01-23T10:13:49.156Z,-0.80
2023-01-23T10:16:33.260Z,-0.80
2023-01-23T10:19:14.671Z,-0.80
2023-01-23T10:22:07.809Z,-0.70
2023-01-23T10:24:40.541Z,-0.70
2023-01-23T10:27:22.478Z,-0.80
2023-01-23T10:29:52.605Z,-0.80
2023-01-23T10:32:31.456Z,-0.80
2023-01-23T10:34:58.495Z,-0.80
2023-01-23T10:37:46.623Z,-0.80
2023-01-23T10:40:16.796Z,-0.90
2023-01-23T10:42:43.816Z,-0.80
2023-01-23T10:45:19.445Z,-0.80
2023-01-23T10:47:54.542Z,-0.80
2023-01-23T10:50:39.840Z,-0.70
2023-01-23T10:53:16.947Z,-0.70
2023-01-23T10:55:46.301Z,-0.70
2023-01-23T10:58:32.169Z,-0.60
2023-01-23T11:01:00.595Z,-0.60
2023-01-23T11:03:33.251Z,-0.60
2023-01-23T11:06:03.270Z,-0.60
2023-01-23T11:08:31.712Z,-0.60
2023-01-23T11:11:16.982Z,-0.50
2023-01-23T11:13:46.701Z,-0.50
2023-01-23T11:16:22.095Z,-0.50
2023-01-23T11:19:07.987Z,-0.60
2023-01-23T11:21:37.453Z,-0.60
2023-01-23T11:24:09.163Z,-0.60
2023-01-23T11:26:37.383Z,-0.50
2023-01-23T11:29:23.981Z,-0.50
2023-01-23T11:31:58.856Z,-0.40
2023-01-23T11:34:30.946Z,-0.40
2023-01-23T11:37:00.898Z,-0.30
2023-01-23T11:39:36.429Z,-0.30
2023-01-23T11:42:04.097Z,-0.30
2023-01-23T11:44:45.101Z,-0.20
2023-01-23T11:47:51.097Z,-0.20
2023-01-23T11:50:26.427Z,-0.30
2023-01-23T11:53:41.897Z,-0.40
2023-01-23T11:56:47.437Z,-0.40
2023-01-23T11:59:21.346Z,-0.50
2023-01-23T12:02:04.131Z,-0.50
2023-01-23T12:04:40.340Z,-0.50
2023-01-23T12:07:23.798Z,-0.50
2023-01-23T12:10:01.309Z,-0.50
2023-01-23T12:12:28.258Z,-0.50
2023-01-23T12:15:23.164Z,-0.50
2023-01-23T12:17:55.655Z,-0.50
2023-01-23T12:20:33.531Z,-0.50
2023-01-23T12:23:15.297Z,-0.60
2023-01-23T12:25:53.986Z,-0.60
2023-01-23T12:28:33.176Z,-0.60
2023-01-23T12:31:25.758Z,-0.70
2023-01-23T12:34:13.836Z,-0.60
2023-01-23T12:37:12.025Z,-0.60
2023-01-23T12:39:57.448Z,-0.60
2023-01-23T12:42:25.853Z,-0.60
2023-01-23T12:45:06.181Z,-0.70
2023-01-23T12:47:42.083Z,-0.80
2023-01-23T12:50:27.312Z,-0.80
2023-01-23T12:53:01.725Z,-0.80
2023-01-23T12:55:38.087Z,-0.90
2023-01-23T12:58:09.397Z,-0.90
2023-01-23T13:00:45.158Z,-0.90
2023-01-23T13:03:31.310Z,-0.90
2023-01-23T13:06:09.295Z,-0.90
2023-01-23T13:09:02.499Z,-0.80
2023-01-23T13:11:45.056Z,-0.80
2023-01-23T13:14:29.152Z,-0.80
2023-01-23T13:17:02.999Z,-0.80
2023-01-23T13:19:56.591Z,-0.80
2023-01-23T13:22:29.060Z,-0.80
2023-01-23T13:25:17.319Z,-0.80
2023-01-23T13:27:45.895Z,-0.80
2023-01-23T13:30:26.139Z,-0.80
2023-01-23T13:32:55.851Z,-0.80
2023-01-23T13:35:44.899Z,-0.80
2023-01-23T13:38:38.997Z,-0.80
2023-01-23T13:41:09.174Z,-0.90
2023-01-23T13:43:56.027Z,-0.90
2023-01-23T14:21:55.302Z,-0.90
2023-01-23T14:24:40.983Z,-1.00
2023-01-23T14:27:13.109Z,-1.00
2023-01-23T14:29:40.139Z,-1.00
2023-01-23T14:32:22.857Z,-1.00
2023-01-23T14:34:49.961Z,-1.00
2023-01-23T14:37:17.291Z,-1.00
2023-01-23T14:39:53.802Z,-1.00
2023-01-23T14:42:27.985Z,-1.00
2023-01-23T14:44:56.908Z,-1.00
2023-01-23T14:47:32.870Z,-1.00
2023-01-23T14:50:02.880Z,-1.00
2023-01-23T14:52:31.290Z,-1.00
2023-01-23T14:55:07.230Z,-1.10
2023-01-23T14:57:35.602Z,-1.00
2023-01-23T15:00:04.338Z,-1.00
2023-01-23T15:02:36.158Z,-1.00
2023-01-23T15:05:17.928Z,-1.00
2023-01-23T15:08:07.557Z,-1.00
2023-01-23T15:10:46.877Z,-1.10
2023-01-23T15:13:25.222Z,-1.00
2023-01-23T15:16:04.173Z,-1.00
2023-01-23T15:18:34.953Z,-1.00
2023-01-23T15:21:06.992Z,-1.00
2023-01-23T15:23:40.877Z,-1.10
2023-01-23T15:26:25.654Z,-1.10
2023-01-23T15:29:00.377Z,-1.10
2023-01-23T15:31:32.122Z,-1.10
2023-01-23T15:34:19.412Z,-1.20
2023-01-23T15:37:20.807Z,-1.20
2023-01-23T15:39:52.173Z,-1.20
2023-01-23T15:42:19.104Z,-1.20
2023-01-23T15:44:46.513Z,-1.20
2023-01-23T15:47:13.440Z,-1.20
2023-01-23T15:49:40.976Z,-1.20
2023-01-23T15:52:45.725Z,-1.20
2023-01-23T15:55:13.526Z,-1.20
2023-01-23T15:57:42.034Z,-1.20
2023-01-23T16:00:19.759Z,-1.20
2023-01-23T16:02:56.143Z,-1.20
2023-01-23T16:05:26.888Z,-1.20
2023-01-23T16:07:55.516Z,-1.20
2023-01-23T16:10:31.739Z,-1.20
2023-01-23T16:12:59.351Z,-1.30
2023-01-23T16:15:32.994Z,-1.40
2023-01-23T16:18:02.892Z,-1.40
2023-01-23T16:20:38.241Z,-1.40
2023-01-23T16:23:15.198Z,-1.50
2023-01-23T16:25:45.457Z,-1.50
2023-01-23T16:28:16.995Z,-1.60
2023-01-23T16:30:45.063Z,-1.70
2023-01-23T16:33:12.468Z,-1.70
2023-01-23T16:35:40.336Z,-1.70
2023-01-23T16:38:07.766Z,-1.70
2023-01-23T16:40:35.038Z,-1.80
2023-01-23T16:43:03.186Z,-1.80
2023-01-23T16:45:31.813Z,-1.70
2023-01-23T16:47:59.479Z,-1.70
2023-01-23T16:50:34.454Z,-1.80
2023-01-23T16:53:10.608Z,-1.70
2023-01-23T16:55:46.199Z,-1.80
2023-01-23T16:58:34.144Z,-1.80
2023-01-23T17:01:10.586Z,-1.80
2023-01-23T17:03:44.686Z,-1.80
2023-01-23T17:06:19.576Z,-1.80
2023-01-23T17:08:53.258Z,-1.70
2023-01-23T17:11:30.290Z,-1.70
2023-01-23T17:14:05.615Z,-1.70
2023-01-23T17:16:33.569Z,-1.70
2023-01-23T17:19:08.155Z,-1.70
2023-01-23T17:21:37.365Z,-1.70
2023-01-23T17:24:05.748Z,-1.60
2023-01-23T17:26:33.748Z,-1.60
2023-01-23T17:29:01.841Z,-1.60
2023-01-23T17:31:30.194Z,-1.60
2023-01-23T17:33:58.500Z,-1.60
2023-01-23T17:36:27.560Z,-1.60
2023-01-23T17:39:04.245Z,-1.50
2023-01-23T17:41:32.434Z,-1.60
2023-01-23T17:44:00.947Z,-1.60
2023-01-23T17:46:33.193Z,-1.60
2023-01-23T17:49:01.341Z,-1.60
2023-01-23T17:51:32.108Z,-1.60
2023-01-23T17:54:00.319Z,-1.60
2023-01-23T17:56:27.321Z,-1.60
2023-01-23T17:58:54.293Z,-1.60
2023-01-23T18:01:25.621Z,-1.60
2023-01-23T18:03:53.703Z,-1.60
2023-01-23T18:06:21.427Z,-1.60
2023-01-23T18:08:49.255Z,-1.60
2023-01-23T18:11:25.015Z,-1.60
2023-01-23T18:13:57.868Z,-1.50
2023-01-23T18:16:36.114Z,-1.50
2023-01-23T18:19:21.288Z,-1.50
2023-01-23T18:21:54.073Z,-1.40
2023-01-23T18:24:30.452Z,-1.40
2023-01-23T18:27:20.796Z,-1.40
2023-01-23T18:30:11.841Z,-1.40
2023-01-23T18:32:50.947Z,-1.50
2023-01-23T18:35:26.814Z,-1.50
2023-01-23T18:38:02.966Z,-1.50
2023-01-23T18:40:53.019Z,-1.60
2023-01-23T18:43:38.752Z,-1.50
2023-01-23T18:46:19.141Z,-1.50
2023-01-23T18:48:47.953Z,-1.40
2023-01-23T18:51:20.688Z,-1.40
2023-01-23T18:54:10.823Z,-1.30
2023-01-23T18:57:10.702Z,-1.20
2023-01-23T19:00:13.150Z,-1.00
2023-01-23T19:02:47.847Z,-0.90
2023-01-23T19:05:16.012Z,-0.70
2023-01-23T19:07:45.131Z,-0.80
2023-01-23T19:10:17.853Z,-0.90
2023-01-23T19:13:06.496Z,-0.90
2023-01-23T19:15:59.247Z,-1.00
2023-01-23T19:18:39.101Z,-1.10
2023-01-23T19:21:16.043Z,-1.10
2023-01-23T19:24:04.389Z,-1.10
2023-01-23T19:26:34.661Z,-1.10
2023-01-23T19:29:20.053Z,-1.20
2023-01-23T19:32:02.889Z,-1.10
2023-01-23T19:34:38.844Z,-1.20
2023-01-23T19:37:09.798Z,-1.10
2023-01-23T19:39:36.805Z,-1.10
2023-01-23T19:42:04.118Z,-1.20
2023-01-23T19:44:31.124Z,-1.10
2023-01-23T19:46:58.238Z,-1.10
2023-01-23T19:49:34.460Z,-1.00
2023-01-23T19:52:02.038Z,-0.90
2023-01-23T19:54:32.400Z,-0.70
2023-01-23T19:56:59.356Z,-0.50
2023-01-23T19:59:27.392Z,-0.40
2023-01-23T20:01:54.533Z,-0.30
2023-01-23T20:04:23.383Z,-0.20
2023-01-23T20:06:52.000Z,-0.20
2023-01-23T20:09:20.084Z,-0.10
2023-01-23T20:11:47.365Z,-0.10
2023-01-23T20:14:17.901Z,0.00
2023-01-23T20:16:44.948Z,0.00
2023-01-23T20:19:16.590Z,0.00
2023-01-23T20:21:43.698Z,0.00
2023-01-23T20:24:11.267Z,-0.10
2023-01-23T20:26:38.648Z,-0.20
2023-01-23T20:29:07.323Z,-0.40
2023-01-23T20:31:44.653Z,-0.50
2023-01-23T20:34:13.968Z,-0.50
2023-01-23T20:36:40.914Z,-0.50
2023-01-23T20:39:08.198Z,-0.40
2023-01-23T20:41:35.121Z,-0.50
2023-01-23T20:44:03.896Z,-0.60
2023-01-23T20:46:31.027Z,-0.60
2023-01-23T20:48:58.301Z,-0.50
2023-01-23T20:51:26.485Z,-0.40
2023-01-23T20:53:53.497Z,-0.40
2023-01-23T20:56:27.885Z,-0.30
2023-01-23T20:59:15.232Z,-0.30
2023-01-23T21:02:02.124Z,-0.30
2023-01-23T21:04:31.419Z,-0.20
2023-01-23T21:06:59.075Z,-0.10
2023-01-23T21:09:27.427Z,0.00
2023-01-23T21:11:55.110Z,0.00
2023-01-23T21:14:23.609Z,0.10
2023-01-23T21:16:50.699Z,0.20
2023-01-23T21:19:18.283Z,0.20
2023-01-23T21:21:45.541Z,0.20
2023-01-23T21:24:13.433Z,0.20
2023-01-23T21:26:41.041Z,0.20
2023-01-23T21:29:10.019Z,0.20
2023-01-23T21:31:41.594Z,0.20
2023-01-23T21:34:11.269Z,0.30
2023-01-23T21:36:39.903Z,0.30
2023-01-23T21:39:09.334Z,0.20
2023-01-23T21:41:37.255Z,0.10
2023-01-23T21:44:04.268Z,-0.10
2023-01-23T21:46:31.563Z,-0.20
2023-01-23T21:48:58.553Z,-0.40
2023-01-23T21:51:26.161Z,-0.40
2023-01-23T21:53:53.297Z,-0.50
2023-01-23T21:56:22.387Z,-0.60
2023-01-23T21:58:50.085Z,-0.60
2023-01-23T22:01:42.692Z,-0.70
2023-01-23T22:04:16.695Z,-0.70
2023-01-23T22:06:45.217Z,-0.70
2023-01-23T22:09:17.285Z,-0.70
2023-01-23T22:11:44.767Z,-0.80
2023-01-23T22:14:11.685Z,-0.80
2023-01-23T22:16:48.828Z,-0.80
2023-01-23T22:19:18.904Z,-0.70
2023-01-23T22:21:46.876Z,-0.70
2023-01-23T22:24:14.783Z,-0.60
2023-01-23T22:26:42.208Z,-0.50
2023-01-23T22:29:09.644Z,-0.50
2023-01-23T22:31:36.730Z,-0.50
2023-01-23T22:34:03.962Z,-0.50
2023-01-23T22:36:30.908Z,-0.60
2023-01-23T22:38:57.834Z,-0.70
2023-01-23T22:41:25.513Z,-0.80
2023-01-23T22:43:59.240Z,-0.80
2023-01-23T22:46:26.826Z,-0.80
2023-01-23T22:48:54.048Z,-0.90
2023-01-23T22:51:26.328Z,-1.00
2023-01-23T22:53:55.140Z,-1.00
2023-01-23T22:56:23.427Z,-1.00
2023-01-23T22:58:52.462Z,-1.00
2023-01-23T23:01:20.426Z,-0.90
2023-01-23T23:03:47.478Z,-0.90
2023-01-23T23:06:16.036Z,-0.90
2023-01-23T23:08:46.376Z,-0.90
2023-01-23T23:11:22.930Z,-0.90
2023-01-23T23:13:50.741Z,-0.90
2023-01-23T23:16:26.443Z,-0.90
2023-01-23T23:18:55.809Z,-1.00
2023-01-23T23:21:26.221Z,-1.00
2023-01-23T23:23:58.403Z,-1.00
2023-01-23T23:26:27.252Z,-1.00
2023-01-23T23:28:54.934Z,-1.00
2023-01-23T23:31:22.051Z,-1.00
2023-01-23T23:33:49.327Z,-1.00
2023-01-23T23:36:16.441Z,-1.00
2023-01-23T23:38:43.597Z,-1.00
2023-01-23T23:41:13.664Z,-1.00
2023-01-23T23:43:40.792Z,-0.90
2023-01-23T23:46:09.084Z,-0.90
2023-01-23T23:48:37.435Z,-0.90
2023-01-23T23:51:06.898Z,-0.90
2023-01-23T23:53:34.660Z,-1.00
2023-01-23T23:56:01.959Z,-0.90
2023-01-23T23:58:28.981Z,-1.00
